createdAt,value
2018-07-21T00:02:02.036Z,59.80
2018-07-21T00:04:29.852Z,59.90
2018-07-21T00:06:57.723Z,58.90
2018-07-21T00:09:25.557Z,58.70
2018-07-21T00:11:53.348Z,56.20
2018-07-21T00:14:21.164Z,56.40
2018-07-21T00:19:16.743Z,57.40
2018-07-21T00:21:44.624Z,57.90
2018-07-21T00:24:12.475Z,59.80
2018-07-21T00:26:46.047Z,60.30
2018-07-21T00:29:13.809Z,60.40
2018-07-21T00:31:41.870Z,60.30
2018-07-21T00:34:09.654Z,61.10
2018-07-21T00:39:08.731Z,63.50
2018-07-21T00:41:36.539Z,63.80
2018-07-21T00:44:04.547Z,64.40
2018-07-21T00:46:32.367Z,64.70
2018-07-21T00:49:00.251Z,64.50
2018-07-21T00:51:28.012Z,64.20
2018-07-21T00:53:55.815Z,63.60
2018-07-21T00:58:51.387Z,64.90
2018-07-21T01:01:19.162Z,65.60
2018-07-21T01:03:47.001Z,65.90
2018-07-21T01:06:14.821Z,67.30
2018-07-21T01:08:42.548Z,67.40
2018-07-21T01:11:10.393Z,64.20
2018-07-21T01:13:38.244Z,63.60
2018-07-21T01:16:06.368Z,64.60
2018-07-21T01:18:34.260Z,67.10
2018-07-21T01:21:01.996Z,65.00
2018-07-21T01:23:29.823Z,58.70
2018-07-21T01:25:57.680Z,57.90
2018-07-21T01:28:25.508Z,61.80
2018-07-21T01:30:53.396Z,60.10
2018-07-21T01:33:21.150Z,61.10
2018-07-21T01:35:48.919Z,61.40
2018-07-21T01:38:16.707Z,63.90
2018-07-21T01:40:44.501Z,63.60
2018-07-21T01:43:12.348Z,65.10
2018-07-21T01:45:40.052Z,67.20
2018-07-21T01:48:07.933Z,68.10
2018-07-21T01:50:35.639Z,70.40
2018-07-21T01:53:03.487Z,67.60
2018-07-21T01:55:31.345Z,68.30
2018-07-21T01:57:59.161Z,62.50
2018-07-21T02:00:26.995Z,64.00
2018-07-21T02:02:54.871Z,63.40
2018-07-21T02:05:22.630Z,69.40
2018-07-21T02:07:50.476Z,69.60
2018-07-21T02:10:18.243Z,69.60
2018-07-21T02:12:46.117Z,66.00
2018-07-21T02:15:13.971Z,70.40
2018-07-21T02:17:41.783Z,72.80
2018-07-21T02:20:09.969Z,73.10
2018-07-21T02:22:37.850Z,73.00
2018-07-21T02:25:06.003Z,66.20
2018-07-21T02:27:33.843Z,63.10
2018-07-21T02:30:01.728Z,62.90
2018-07-21T02:32:29.568Z,66.20
2018-07-21T02:34:57.404Z,70.50
2018-07-21T02:37:25.239Z,72.40
2018-07-21T02:39:52.976Z,62.20
2018-07-21T02:42:20.846Z,63.70
2018-07-21T02:44:48.729Z,67.60
2018-07-21T02:47:16.625Z,66.50
2018-07-21T02:49:44.418Z,65.00
2018-07-21T02:52:12.223Z,62.70
2018-07-21T02:54:40.134Z,67.80
2018-07-21T02:57:07.908Z,73.30
2018-07-21T02:59:35.765Z,78.30
2018-07-21T03:02:03.568Z,76.10
2018-07-21T03:04:31.372Z,65.00
2018-07-21T03:06:59.201Z,74.50
2018-07-21T03:09:26.955Z,68.70
2018-07-21T03:11:54.717Z,75.10
2018-07-21T03:14:22.530Z,72.50
2018-07-21T03:16:50.355Z,71.90
2018-07-21T03:19:18.147Z,80.00
2018-07-21T03:21:45.928Z,79.90
2018-07-21T03:24:13.724Z,80.30
2018-07-21T03:26:41.572Z,83.10
2018-07-21T03:29:09.466Z,81.70
2018-07-21T03:31:37.236Z,83.00
2018-07-21T03:34:05.149Z,75.90
2018-07-21T03:36:32.947Z,71.50
2018-07-21T03:39:00.777Z,81.50
2018-07-21T03:43:56.395Z,84.90
2018-07-21T03:46:24.235Z,83.60
2018-07-21T03:48:52.084Z,77.50
2018-07-21T03:51:19.874Z,75.50
2018-07-21T03:53:47.708Z,81.20
2018-07-21T03:56:15.529Z,80.60
2018-07-21T03:58:43.344Z,79.80
2018-07-21T04:01:11.191Z,81.50
2018-07-21T04:03:39.101Z,78.50
2018-07-21T04:06:06.959Z,83.40
2018-07-21T04:08:35.045Z,77.50
2018-07-21T04:11:03.105Z,77.60
2018-07-21T04:13:31.040Z,77.70
2018-07-21T04:15:58.915Z,81.70
2018-07-21T04:18:26.695Z,79.00
2018-07-21T04:20:54.527Z,78.40
2018-07-21T04:23:22.435Z,75.00
2018-07-21T04:25:50.135Z,74.10
2018-07-21T04:30:45.743Z,75.10
2018-07-21T04:33:13.614Z,75.40
2018-07-21T04:35:41.394Z,74.60
2018-07-21T04:38:09.129Z,70.60
2018-07-21T04:40:36.927Z,72.10
2018-07-21T04:43:04.963Z,71.30
2018-07-21T04:45:32.739Z,71.00
2018-07-21T04:48:00.779Z,70.20
2018-07-21T04:50:28.627Z,69.60
2018-07-21T04:52:56.503Z,70.40
2018-07-21T04:55:24.271Z,69.00
2018-07-21T04:57:52.063Z,69.60
2018-07-21T05:00:19.918Z,69.30
2018-07-21T05:02:47.736Z,68.40
2018-07-21T05:05:15.600Z,70.90
2018-07-21T05:07:43.369Z,70.20
2018-07-21T05:10:11.132Z,68.50
2018-07-21T05:12:38.940Z,68.80
2018-07-21T05:15:06.769Z,68.60
2018-07-21T05:17:34.579Z,66.40
2018-07-21T05:20:02.415Z,67.40
2018-07-21T05:22:30.216Z,67.90
2018-07-21T05:24:58.080Z,67.70
2018-07-21T05:27:25.815Z,68.80
2018-07-21T05:29:53.518Z,68.80
2018-07-21T05:32:21.319Z,70.30
2018-07-21T05:34:49.125Z,69.50
2018-07-21T05:37:16.908Z,70.80
2018-07-21T05:39:44.764Z,73.00
2018-07-21T05:42:12.527Z,71.70
2018-07-21T05:44:40.336Z,73.30
2018-07-21T05:47:08.208Z,72.20
2018-07-21T05:49:36.023Z,71.80
2018-07-21T05:52:03.872Z,72.10
2018-07-21T05:54:31.680Z,71.10
2018-07-21T05:56:59.538Z,71.30
2018-07-21T05:59:27.285Z,71.60
2018-07-21T06:01:55.113Z,71.60
2018-07-21T06:04:22.946Z,71.30
2018-07-21T06:06:50.711Z,70.70
2018-07-21T06:09:18.563Z,69.60
2018-07-21T06:11:46.313Z,69.00
2018-07-21T06:14:14.094Z,68.20
2018-07-21T06:16:41.919Z,67.20
2018-07-21T06:19:09.711Z,67.20
2018-07-21T06:21:37.579Z,66.90
2018-07-21T06:24:05.488Z,65.90
2018-07-21T06:26:33.307Z,63.80
2018-07-21T06:29:01.151Z,62.70
2018-07-21T06:31:28.976Z,61.40
2018-07-21T06:33:56.779Z,61.10
2018-07-21T06:36:24.652Z,60.30
2018-07-21T06:38:52.403Z,60.70
2018-07-21T06:41:20.183Z,60.80
2018-07-21T06:43:48.116Z,59.90
2018-07-21T06:46:15.927Z,59.50
2018-07-21T06:48:43.804Z,58.50
2018-07-21T06:51:11.519Z,58.90
2018-07-21T06:53:39.468Z,59.20
2018-07-21T06:56:07.283Z,58.50
2018-07-21T07:01:02.772Z,57.90
2018-07-21T07:03:30.576Z,57.40
2018-07-21T07:05:58.454Z,58.10
2018-07-21T07:08:26.273Z,58.10
2018-07-21T07:10:54.055Z,58.80
2018-07-21T07:13:21.864Z,58.60
2018-07-21T07:15:49.727Z,59.50
2018-07-21T07:18:17.532Z,59.00
2018-07-21T07:20:45.432Z,59.40
2018-07-21T07:23:13.307Z,60.00
2018-07-21T07:25:41.131Z,59.90
2018-07-21T07:28:08.885Z,59.30
2018-07-21T07:30:36.699Z,59.50
2018-07-21T07:33:04.435Z,59.20
2018-07-21T07:35:32.266Z,59.00
2018-07-21T07:38:00.012Z,58.50
2018-07-21T07:40:27.866Z,58.10
2018-07-21T07:42:55.576Z,57.40
2018-07-21T07:45:23.395Z,57.20
2018-07-21T07:47:51.307Z,56.40
2018-07-21T07:50:19.110Z,55.80
2018-07-21T07:52:46.899Z,55.20
2018-07-21T07:55:14.723Z,54.30
2018-07-21T07:57:42.470Z,53.70
2018-07-21T08:00:10.300Z,53.20
2018-07-21T08:02:38.124Z,53.30
2018-07-21T08:05:06.008Z,52.50
2018-07-21T08:07:33.747Z,53.40
2018-07-21T08:10:01.487Z,53.10
2018-07-21T08:12:29.213Z,53.40
2018-07-21T08:14:56.984Z,52.80
2018-07-21T08:17:24.872Z,52.20
2018-07-21T08:19:52.640Z,52.80
2018-07-21T08:22:20.475Z,52.50
2018-07-21T08:24:48.437Z,51.90
2018-07-21T08:27:16.171Z,51.40
2018-07-21T08:29:43.990Z,50.80
2018-07-21T08:32:11.879Z,50.40
2018-07-21T08:34:39.621Z,50.30
2018-07-21T08:37:07.412Z,49.40
2018-07-21T08:39:35.222Z,49.00
2018-07-21T08:42:07.045Z,48.50
2018-07-21T08:44:34.854Z,48.50
2018-07-21T08:49:30.528Z,48.40
2018-07-21T08:51:58.355Z,46.70
2018-07-21T08:54:26.144Z,45.90
2018-07-21T08:56:53.932Z,44.60
2018-07-21T08:59:21.723Z,45.70
2018-07-21T09:01:49.595Z,44.90
2018-07-21T09:04:17.406Z,45.70
2018-07-21T09:06:45.222Z,46.20
2018-07-21T09:09:13.080Z,46.40
2018-07-21T09:11:41.571Z,44.40
2018-07-21T09:14:09.371Z,44.70
2018-07-21T09:16:37.151Z,44.70
2018-07-21T09:19:05.155Z,45.40
2018-07-21T09:21:33.018Z,45.50
2018-07-21T09:24:00.715Z,45.00
2018-07-21T09:26:28.571Z,45.30
2018-07-21T09:28:56.402Z,45.30
2018-07-21T09:31:24.135Z,45.70
2018-07-21T09:33:51.935Z,46.30
2018-07-21T09:36:19.851Z,46.90
2018-07-21T09:38:47.744Z,47.10
2018-07-21T09:41:15.516Z,47.50
2018-07-21T09:43:43.399Z,48.10
2018-07-21T09:46:11.268Z,48.70
2018-07-21T09:48:39.103Z,50.00
2018-07-21T09:51:07.275Z,51.30
2018-07-21T09:53:35.079Z,52.00
2018-07-21T09:56:04.060Z,53.20
2018-07-21T09:58:31.799Z,53.50
2018-07-21T10:01:04.115Z,55.10
2018-07-21T10:03:33.206Z,54.50
2018-07-21T10:06:01.051Z,55.30
2018-07-21T10:08:29.172Z,56.00
2018-07-21T10:10:57.047Z,58.10
2018-07-21T10:13:25.545Z,59.40
2018-07-21T10:15:53.329Z,63.00
2018-07-21T10:18:21.131Z,69.50
2018-07-21T10:20:48.967Z,74.70
2018-07-21T10:23:17.155Z,77.20
2018-07-21T10:25:50.663Z,83.40
2018-07-21T10:28:24.509Z,80.80
2018-07-21T10:30:52.280Z,80.60
2018-07-21T10:33:20.262Z,83.60
2018-07-21T10:35:48.035Z,83.50
2018-07-21T10:38:15.787Z,82.70
2018-07-21T10:40:43.793Z,82.10
2018-07-21T10:43:11.617Z,83.40
2018-07-21T10:45:39.471Z,84.50
2018-07-21T10:48:07.712Z,85.80
2018-07-21T10:50:35.742Z,83.80
2018-07-21T10:53:03.583Z,84.70
2018-07-21T10:55:31.439Z,87.30
2018-07-21T10:57:59.404Z,86.50
2018-07-21T11:00:27.186Z,87.50
2018-07-21T11:02:55.071Z,89.80
2018-07-21T11:05:22.864Z,87.60
2018-07-21T11:07:51.047Z,87.20
2018-07-21T11:10:18.889Z,88.30
2018-07-21T11:12:46.704Z,90.30
2018-07-21T11:15:14.547Z,88.80
2018-07-21T11:17:42.357Z,89.70
2018-07-21T11:20:10.336Z,90.00
2018-07-21T11:22:38.143Z,88.20
2018-07-21T11:25:06.931Z,86.50
2018-07-21T11:27:34.839Z,86.70
2018-07-21T11:30:02.675Z,88.90
2018-07-21T11:32:30.651Z,89.70
2018-07-21T11:34:59.610Z,86.80
2018-07-21T11:37:27.475Z,89.60
2018-07-21T11:39:55.251Z,89.00
2018-07-21T11:42:23.418Z,87.90
2018-07-21T11:44:51.252Z,86.20
2018-07-21T11:47:19.055Z,90.00
2018-07-21T11:49:46.959Z,87.80
2018-07-21T11:52:14.724Z,90.00
2018-07-21T11:54:43.025Z,89.50
2018-07-21T11:57:10.916Z,88.60
2018-07-21T11:59:38.659Z,90.20
2018-07-21T12:02:06.492Z,90.50
2018-07-21T12:04:34.336Z,90.20
2018-07-21T12:07:02.101Z,90.90
2018-07-21T12:09:29.911Z,91.40
2018-07-21T12:11:57.890Z,91.50
2018-07-21T12:14:25.736Z,91.60
2018-07-21T12:16:53.502Z,90.80
2018-07-21T12:19:21.271Z,91.30
2018-07-21T12:21:49.091Z,90.50
2018-07-21T12:24:16.940Z,90.80
2018-07-21T12:26:44.770Z,91.40
2018-07-21T12:29:14.613Z,91.20
2018-07-21T12:31:42.484Z,92.30
2018-07-21T12:34:10.291Z,91.70
2018-07-21T12:36:38.530Z,91.80
2018-07-21T12:39:08.229Z,91.60
2018-07-21T12:41:36.211Z,92.50
2018-07-21T12:44:04.088Z,90.00
2018-07-21T12:46:31.914Z,88.70
2018-07-21T12:48:59.700Z,88.90
2018-07-21T12:51:27.548Z,86.80
2018-07-21T12:53:59.119Z,85.00
2018-07-21T12:56:26.955Z,84.10
2018-07-21T12:58:54.794Z,84.90
2018-07-21T13:01:22.623Z,83.20
2018-07-21T13:03:50.447Z,81.60
2018-07-21T13:06:18.311Z,80.80
2018-07-21T13:08:46.083Z,79.60
2018-07-21T13:11:13.890Z,79.10
2018-07-21T13:13:41.772Z,79.20
2018-07-21T13:16:09.565Z,77.50
2018-07-21T13:18:37.340Z,78.70
2018-07-21T13:21:05.221Z,78.10
2018-07-21T13:23:33.088Z,74.20
2018-07-21T13:26:00.903Z,74.50
2018-07-21T13:28:28.684Z,73.20
2018-07-21T13:30:58.664Z,74.00
2018-07-21T13:33:26.663Z,71.80
2018-07-21T13:35:54.539Z,73.90
2018-07-21T13:38:23.896Z,72.70
2018-07-21T13:40:54.291Z,72.30
2018-07-21T13:43:23.168Z,68.60
2018-07-21T13:45:51.027Z,67.30
2018-07-21T13:48:23.162Z,68.30
2018-07-21T13:50:56.259Z,65.50
2018-07-21T13:53:24.213Z,65.20
2018-07-21T13:55:52.044Z,67.50
2018-07-21T13:58:21.195Z,66.10
2018-07-21T14:00:49.122Z,62.90
2018-07-21T14:03:17.146Z,63.70
2018-07-21T14:05:49.558Z,65.00
2018-07-21T14:08:18.434Z,64.10
2018-07-21T14:10:46.934Z,64.20
2018-07-21T14:13:15.064Z,61.00
2018-07-21T14:15:47.744Z,61.80
2018-07-21T14:18:22.494Z,62.50
2018-07-21T14:20:51.327Z,60.70
2018-07-21T14:23:19.172Z,60.30
2018-07-21T14:25:47.092Z,60.80
2018-07-21T14:28:15.941Z,60.30
2018-07-21T14:30:48.356Z,59.40
2018-07-21T14:33:18.989Z,59.90
2018-07-21T14:35:46.875Z,59.20
2018-07-21T14:38:22.756Z,58.90
2018-07-21T14:40:55.568Z,57.20
2018-07-21T14:43:23.432Z,57.70
2018-07-21T14:45:55.145Z,57.80
2018-07-21T14:48:24.194Z,58.00
2018-07-21T14:50:53.734Z,58.20
2018-07-21T14:53:29.587Z,58.50
2018-07-21T14:55:59.508Z,58.00
2018-07-21T14:58:27.411Z,56.80
2018-07-21T15:00:55.187Z,55.70
2018-07-21T15:03:28.814Z,56.60
2018-07-21T15:05:57.003Z,57.10
2018-07-21T15:08:24.835Z,57.10
2018-07-21T15:10:58.630Z,56.50
2018-07-21T15:13:36.861Z,57.10
2018-07-21T15:16:05.228Z,56.50
2018-07-21T15:18:33.139Z,58.00
2018-07-21T15:23:28.740Z,57.70
2018-07-21T15:25:56.569Z,58.00
2018-07-21T15:28:24.407Z,58.00
2018-07-21T15:30:52.262Z,57.60
2018-07-21T15:33:20.111Z,57.20
2018-07-21T15:35:48.802Z,57.30
2018-07-21T15:38:16.847Z,57.80
2018-07-21T15:40:44.691Z,58.10
2018-07-21T15:43:12.479Z,59.00
2018-07-21T15:45:40.296Z,59.40
2018-07-21T15:48:08.152Z,59.10
2018-07-21T15:50:35.943Z,59.00
2018-07-21T15:53:03.820Z,59.40
2018-07-21T15:55:34.381Z,59.70
2018-07-21T15:58:02.544Z,59.70
2018-07-21T16:00:30.388Z,59.90
2018-07-21T16:02:58.231Z,61.30
2018-07-21T16:05:26.036Z,61.90
2018-07-21T16:07:54.276Z,62.60
2018-07-21T16:10:22.308Z,62.50
2018-07-21T16:12:50.076Z,62.70
2018-07-21T16:15:17.903Z,64.50
2018-07-21T16:17:45.670Z,64.50
2018-07-21T16:20:13.490Z,64.60
2018-07-21T16:22:41.275Z,64.90
2018-07-21T16:25:09.043Z,64.40
2018-07-21T16:27:36.851Z,64.80
2018-07-21T16:30:05.084Z,65.80
2018-07-21T16:32:32.912Z,66.30
2018-07-21T16:35:00.776Z,66.00
2018-07-21T16:37:28.659Z,66.30
2018-07-21T16:39:56.457Z,66.00
2018-07-21T16:42:24.327Z,66.00
2018-07-21T16:44:52.139Z,67.20
2018-07-21T16:47:19.908Z,67.70
2018-07-21T16:49:47.784Z,66.60
2018-07-21T16:52:15.697Z,67.90
2018-07-21T16:54:43.604Z,67.80
2018-07-21T16:57:11.394Z,67.40
2018-07-21T16:59:39.205Z,66.80
2018-07-21T17:02:07.080Z,66.50
2018-07-21T17:04:34.856Z,67.40
2018-07-21T17:07:02.617Z,67.70
2018-07-21T17:09:30.412Z,67.60
2018-07-21T17:11:58.195Z,69.60
2018-07-21T17:14:26.013Z,69.00
2018-07-21T17:16:53.780Z,68.60
2018-07-21T17:19:21.493Z,67.50
2018-07-21T17:21:49.326Z,67.90
2018-07-21T17:24:17.115Z,68.20
2018-07-21T17:26:44.888Z,67.70
2018-07-21T17:29:12.764Z,68.70
2018-07-21T17:31:40.605Z,68.40
2018-07-21T17:34:08.458Z,68.40
2018-07-21T17:36:36.246Z,69.20
2018-07-21T17:39:07.490Z,69.40
2018-07-21T17:41:36.378Z,69.80
2018-07-21T17:44:04.582Z,70.40
2018-07-21T17:46:32.457Z,70.10
2018-07-21T17:49:00.347Z,71.00
2018-07-21T17:51:28.219Z,69.30
2018-07-21T17:53:55.960Z,69.20
2018-07-21T17:56:23.807Z,69.90
2018-07-21T17:58:51.608Z,70.10
2018-07-21T18:01:19.504Z,68.90
2018-07-21T18:03:47.257Z,69.40
2018-07-21T18:06:15.108Z,70.00
2018-07-21T18:08:42.888Z,68.50
2018-07-21T18:11:10.723Z,69.00
2018-07-21T18:13:38.551Z,68.90
2018-07-21T18:16:07.814Z,70.50
2018-07-21T18:18:35.589Z,69.40
2018-07-21T18:21:03.471Z,69.00
2018-07-21T18:23:31.287Z,68.20
2018-07-21T18:25:59.144Z,68.40
2018-07-21T18:28:26.987Z,68.40
2018-07-21T18:30:54.766Z,69.30
2018-07-21T18:33:22.634Z,69.70
2018-07-21T18:35:50.494Z,70.70
2018-07-21T18:38:18.271Z,71.50
2018-07-21T18:40:46.068Z,70.90
2018-07-21T18:43:13.902Z,70.70
2018-07-21T18:45:41.731Z,71.20
2018-07-21T18:48:09.555Z,73.00
2018-07-21T18:50:37.364Z,73.40
2018-07-21T18:53:05.171Z,73.60
2018-07-21T18:55:33.004Z,73.20
2018-07-21T18:58:01.348Z,73.70
2018-07-21T19:00:29.153Z,73.80
2018-07-21T19:02:56.963Z,74.30
2018-07-21T19:05:24.827Z,75.10
2018-07-21T19:07:53.573Z,75.10
2018-07-21T19:10:21.703Z,76.00
2018-07-21T19:12:50.988Z,78.60
2018-07-21T19:15:24.692Z,76.10
2018-07-21T19:17:52.733Z,79.10
2018-07-21T19:20:26.300Z,76.60
2018-07-21T19:22:54.171Z,80.10
2018-07-21T19:25:28.105Z,79.60
2018-07-21T19:27:56.275Z,81.50
2018-07-21T19:30:27.366Z,81.50
2018-07-21T19:32:57.215Z,82.40
2018-07-21T19:35:25.308Z,83.20
2018-07-21T19:37:53.083Z,83.20
2018-07-21T19:40:20.847Z,84.20
2018-07-21T19:42:48.807Z,86.40
2018-07-21T19:45:16.571Z,85.20
2018-07-21T19:47:44.447Z,82.70
2018-07-21T19:50:12.284Z,86.90
2018-07-21T19:52:40.722Z,86.80
2018-07-21T19:55:08.923Z,85.40
2018-07-21T19:57:37.387Z,86.70
2018-07-21T20:00:05.953Z,88.10
2018-07-21T20:02:38.395Z,89.50
2018-07-21T20:05:07.469Z,84.70
2018-07-21T20:07:35.308Z,88.00
2018-07-21T20:10:05.200Z,90.50
2018-07-21T20:12:33.057Z,88.70
2018-07-21T20:15:00.780Z,90.00
2018-07-21T20:17:28.684Z,88.80
2018-07-21T20:19:56.456Z,87.80
2018-07-21T20:22:24.639Z,87.40
2018-07-21T20:24:58.022Z,89.30
2018-07-21T20:27:26.063Z,88.90
2018-07-21T20:29:54.322Z,86.00
2018-07-21T20:32:26.571Z,87.90
2018-07-21T20:34:56.221Z,87.10
2018-07-21T20:37:24.129Z,89.80
2018-07-21T20:39:51.959Z,89.40
2018-07-21T20:42:21.328Z,90.40
2018-07-21T20:44:49.145Z,89.50
2018-07-21T20:47:22.402Z,88.30
2018-07-21T20:49:50.143Z,87.90
2018-07-21T20:52:21.261Z,90.30
2018-07-21T20:54:53.143Z,90.80
2018-07-21T20:57:21.553Z,89.00
2018-07-21T20:59:49.845Z,89.10
2018-07-21T21:02:17.655Z,88.50
2018-07-21T21:04:45.547Z,87.70
2018-07-21T21:07:13.388Z,91.40
2018-07-21T21:09:47.733Z,89.30
2018-07-21T21:12:16.017Z,91.30
2018-07-21T21:17:12.210Z,90.50
2018-07-21T21:22:08.507Z,90.60
2018-07-21T21:24:36.395Z,90.40
2018-07-21T21:27:04.198Z,88.60
2018-07-21T21:29:32.063Z,91.30
2018-07-21T21:31:59.890Z,91.00
2018-07-21T21:34:27.805Z,91.50
2018-07-21T21:36:55.565Z,91.70
2018-07-21T21:39:27.937Z,90.60
2018-07-21T21:41:56.449Z,92.30
2018-07-21T21:44:24.400Z,92.40
2018-07-21T21:46:52.196Z,92.70
2018-07-21T21:49:19.931Z,90.80
2018-07-21T21:51:47.854Z,91.70
2018-07-21T21:54:15.683Z,91.70
2018-07-21T21:56:49.031Z,92.90
2018-07-21T21:59:16.944Z,91.80
2018-07-21T22:01:51.200Z,91.90
2018-07-21T22:04:19.072Z,91.90
2018-07-21T22:06:46.835Z,93.00
2018-07-21T22:09:14.660Z,92.20
2018-07-21T22:11:42.527Z,92.00
2018-07-21T22:14:10.368Z,91.80
2018-07-21T22:16:39.797Z,91.90
2018-07-21T22:19:07.733Z,92.50
2018-07-21T22:21:35.538Z,92.40
2018-07-21T22:24:03.372Z,92.80
2018-07-21T22:26:31.655Z,93.50
2018-07-21T22:29:04.719Z,91.60
2018-07-21T22:31:33.200Z,93.90
2018-07-21T22:34:00.960Z,91.70
2018-07-21T22:36:28.767Z,93.90
2018-07-21T22:38:56.639Z,93.30
2018-07-21T22:41:25.077Z,94.10
2018-07-21T22:43:52.836Z,93.70
2018-07-21T22:46:20.646Z,94.10
2018-07-21T22:48:48.512Z,93.40
2018-07-21T22:51:16.351Z,93.90
2018-07-21T22:53:44.144Z,94.50
2018-07-21T22:56:11.890Z,93.80
2018-07-21T22:58:39.778Z,92.80
2018-07-21T23:01:07.637Z,94.30
2018-07-21T23:03:35.442Z,92.80
2018-07-21T23:06:03.355Z,94.40
2018-07-21T23:10:58.967Z,93.30
2018-07-21T23:13:26.787Z,92.20
2018-07-21T23:15:54.588Z,92.40
2018-07-21T23:18:22.462Z,93.60
2018-07-21T23:20:50.336Z,94.40
2018-07-21T23:23:18.121Z,93.50
2018-07-21T23:25:45.920Z,94.30
2018-07-21T23:28:13.769Z,94.20
2018-07-21T23:30:41.539Z,94.10
2018-07-21T23:33:09.404Z,93.90
2018-07-21T23:35:37.202Z,94.50
2018-07-21T23:38:05.048Z,92.70
2018-07-21T23:40:32.827Z,93.60
2018-07-21T23:43:00.623Z,93.00
2018-07-21T23:45:28.443Z,92.80
2018-07-21T23:47:56.259Z,92.30
2018-07-21T23:50:24.131Z,91.80
2018-07-21T23:52:51.924Z,92.70
2018-07-21T23:55:19.791Z,92.60
2018-07-21T23:57:47.534Z,92.70
